createdAt,value
2019-02-21T00:00:08.531Z,4.30
2019-02-21T00:02:35.775Z,4.30
2019-02-21T00:05:03.987Z,4.30
2019-02-21T00:07:31.450Z,4.20
2019-02-21T00:09:58.783Z,4.20
2019-02-21T00:12:26.102Z,4.20
2019-02-21T00:14:53.464Z,4.10
2019-02-21T00:17:20.723Z,4.10
2019-02-21T00:19:47.962Z,4.00
2019-02-21T00:22:15.196Z,4.00
2019-02-21T00:24:42.484Z,4.00
2019-02-21T00:27:09.804Z,3.90
2019-02-21T00:29:37.051Z,3.90
2019-02-21T00:32:04.280Z,3.80
2019-02-21T00:34:31.523Z,3.90
2019-02-21T00:36:58.881Z,3.70
2019-02-21T00:39:26.327Z,3.90
2019-02-21T00:41:53.587Z,3.80
2019-02-21T00:44:20.867Z,3.80
2019-02-21T00:46:48.115Z,3.80
2019-02-21T00:49:15.484Z,3.60
2019-02-21T00:51:42.775Z,3.50
2019-02-21T00:54:10.122Z,3.70
2019-02-21T00:56:37.451Z,3.60
2019-02-21T00:59:04.691Z,3.60
2019-02-21T01:01:32.053Z,3.70
2019-02-21T01:03:59.372Z,3.60
2019-02-21T01:06:27.975Z,3.70
2019-02-21T01:08:56.673Z,3.80
2019-02-21T01:11:24.341Z,3.70
2019-02-21T01:13:52.063Z,3.80
2019-02-21T01:16:19.750Z,3.70
2019-02-21T01:18:47.475Z,3.60
2019-02-21T01:21:15.185Z,3.50
2019-02-21T01:23:42.907Z,3.50
2019-02-21T01:26:10.204Z,3.70
2019-02-21T01:28:37.451Z,3.50
2019-02-21T01:31:04.690Z,3.50
2019-02-21T01:33:31.984Z,3.30
2019-02-21T01:35:59.242Z,3.20
2019-02-21T01:38:26.492Z,3.10
2019-02-21T01:40:53.789Z,3.10
2019-02-21T01:43:21.180Z,3.20
2019-02-21T01:45:48.569Z,3.10
2019-02-21T01:48:15.815Z,3.00
2019-02-21T01:50:43.071Z,3.10
2019-02-21T01:53:10.295Z,3.20
2019-02-21T01:55:37.553Z,3.20
2019-02-21T01:58:04.891Z,3.20
2019-02-21T02:00:32.159Z,3.30
2019-02-21T02:02:59.419Z,3.30
2019-02-21T02:05:26.663Z,3.30
2019-02-21T02:07:53.940Z,3.20
2019-02-21T02:10:21.216Z,3.30
2019-02-21T02:12:48.453Z,3.10
2019-02-21T02:15:15.724Z,3.20
2019-02-21T02:17:42.956Z,3.00
2019-02-21T02:20:10.200Z,3.00
2019-02-21T02:22:37.552Z,3.20
2019-02-21T02:25:04.799Z,3.10
2019-02-21T02:27:32.052Z,3.10
2019-02-21T02:29:59.347Z,3.10
2019-02-21T02:32:26.604Z,3.20
2019-02-21T02:34:53.845Z,3.20
2019-02-21T02:37:21.099Z,3.10
2019-02-21T02:39:48.332Z,3.00
2019-02-21T02:42:15.635Z,3.10
2019-02-21T02:44:42.984Z,3.10
2019-02-21T02:47:10.312Z,3.30
2019-02-21T02:49:37.590Z,3.30
2019-02-21T02:52:04.832Z,3.40
2019-02-21T02:54:32.072Z,3.40
2019-02-21T02:56:59.345Z,3.30
2019-02-21T03:01:53.810Z,3.30
2019-02-21T03:04:21.062Z,3.20
2019-02-21T03:06:48.375Z,3.30
2019-02-21T03:09:15.799Z,3.30
2019-02-21T03:11:43.024Z,3.20
2019-02-21T03:14:10.355Z,3.10
2019-02-21T03:16:37.711Z,3.00
2019-02-21T03:19:04.969Z,2.80
2019-02-21T03:21:32.203Z,3.00
2019-02-21T03:23:59.481Z,3.10
2019-02-21T03:26:26.707Z,3.20
2019-02-21T03:28:53.970Z,3.30
2019-02-21T03:31:21.363Z,3.40
2019-02-21T03:33:48.720Z,3.40
2019-02-21T03:36:15.949Z,3.40
2019-02-21T03:38:43.180Z,3.50
2019-02-21T03:41:10.545Z,3.50
2019-02-21T03:43:37.794Z,3.40
2019-02-21T03:46:05.103Z,3.50
2019-02-21T03:48:32.340Z,3.40
2019-02-21T03:50:59.706Z,3.40
2019-02-21T03:53:26.959Z,3.30
2019-02-21T03:55:54.266Z,3.20
2019-02-21T03:58:21.502Z,3.30
2019-02-21T04:00:48.749Z,3.30
2019-02-21T04:03:16.103Z,3.30
2019-02-21T04:05:43.360Z,3.10
2019-02-21T04:08:10.771Z,3.00
2019-02-21T04:10:38.108Z,3.00
2019-02-21T04:13:05.341Z,3.00
2019-02-21T04:15:32.672Z,2.80
2019-02-21T04:17:59.953Z,2.70
2019-02-21T04:20:27.183Z,2.70
2019-02-21T04:22:54.448Z,2.80
2019-02-21T04:25:21.691Z,2.70
2019-02-21T04:27:48.925Z,2.70
2019-02-21T04:30:16.168Z,2.70
2019-02-21T04:32:43.412Z,2.70
2019-02-21T04:35:10.693Z,2.70
2019-02-21T04:37:38.068Z,2.80
2019-02-21T04:40:05.467Z,2.70
2019-02-21T04:42:33.121Z,2.70
2019-02-21T04:45:00.574Z,2.60
2019-02-21T04:47:27.866Z,2.70
2019-02-21T04:49:55.165Z,2.80
2019-02-21T04:52:22.589Z,2.80
2019-02-21T04:54:49.858Z,2.70
2019-02-21T04:57:17.125Z,2.70
2019-02-21T04:59:44.361Z,2.50
2019-02-21T05:02:11.757Z,2.60
2019-02-21T05:04:38.987Z,2.50
2019-02-21T05:07:06.275Z,2.60
2019-02-21T05:09:33.564Z,2.50
2019-02-21T05:12:00.826Z,2.70
2019-02-21T05:14:28.088Z,2.80
2019-02-21T05:16:55.414Z,2.70
2019-02-21T05:19:22.724Z,2.80
2019-02-21T05:21:49.980Z,2.80
2019-02-21T05:24:17.286Z,2.90
2019-02-21T05:26:48.882Z,2.80
2019-02-21T05:29:17.152Z,2.90
2019-02-21T05:32:21.847Z,2.80
2019-02-21T05:34:58.411Z,2.90
2019-02-21T05:37:48.021Z,2.80
2019-02-21T05:40:29.043Z,2.80
2019-02-21T05:43:14.008Z,2.90
2019-02-21T05:46:15.973Z,3.00
2019-02-21T05:48:58.074Z,3.00
2019-02-21T05:51:38.989Z,2.80
2019-02-21T05:54:25.742Z,3.00
2019-02-21T05:57:01.411Z,2.80
2019-02-21T05:59:46.231Z,2.80
2019-02-21T06:02:35.961Z,3.10
2019-02-21T06:05:09.950Z,2.90
2019-02-21T06:08:02.857Z,2.90
2019-02-21T06:10:58.290Z,2.90
2019-02-21T06:13:57.147Z,3.10
2019-02-21T06:16:43.920Z,3.20
2019-02-21T06:19:19.497Z,3.10
2019-02-21T06:22:10.515Z,3.20
2019-02-21T06:25:02.717Z,3.10
2019-02-21T06:27:40.257Z,3.20
2019-02-21T06:30:11.795Z,3.20
2019-02-21T06:32:40.761Z,2.90
2019-02-21T06:35:08.415Z,3.00
2019-02-21T06:37:37.738Z,3.00
2019-02-21T06:40:04.860Z,3.00
2019-02-21T06:42:32.192Z,2.80
2019-02-21T06:44:59.412Z,3.00
2019-02-21T06:47:26.657Z,3.10
2019-02-21T06:49:54.020Z,3.10
2019-02-21T06:52:21.340Z,3.10
2019-02-21T06:54:48.556Z,3.10
2019-02-21T06:57:15.812Z,3.10
2019-02-21T06:59:45.323Z,3.20
2019-02-21T07:02:13.679Z,3.20
2019-02-21T07:04:41.102Z,3.40
2019-02-21T07:07:08.396Z,3.50
2019-02-21T07:09:35.680Z,3.50
2019-02-21T07:12:02.910Z,3.40
2019-02-21T07:14:30.264Z,3.40
2019-02-21T07:16:57.588Z,3.40
2019-02-21T07:19:24.831Z,3.50
2019-02-21T07:21:52.123Z,3.50
2019-02-21T07:24:19.440Z,3.70
2019-02-21T07:26:46.767Z,3.60
2019-02-21T07:29:15.454Z,3.80
2019-02-21T07:31:42.785Z,3.80
2019-02-21T07:34:10.069Z,4.00
2019-02-21T07:36:37.355Z,4.10
2019-02-21T07:39:16.996Z,4.30
2019-02-21T07:41:34.515Z,4.40
2019-02-21T07:44:11.767Z,4.60
2019-02-21T07:46:32.417Z,4.60
2019-02-21T07:48:59.856Z,4.90
2019-02-21T07:51:27.086Z,5.10
2019-02-21T07:53:54.385Z,5.30
2019-02-21T07:56:21.622Z,5.50
2019-02-21T07:58:48.870Z,5.70
2019-02-21T08:01:17.513Z,5.70
2019-02-21T08:03:48.121Z,5.70
2019-02-21T08:06:14.306Z,5.80
2019-02-21T08:08:41.543Z,5.80
2019-02-21T08:11:09.243Z,5.70
2019-02-21T08:13:36.503Z,5.70
2019-02-21T08:16:03.827Z,5.60
2019-02-21T08:18:31.206Z,5.60
2019-02-21T08:20:58.528Z,5.60
2019-02-21T08:23:25.763Z,5.40
2019-02-21T08:25:53.082Z,5.30
2019-02-21T08:28:20.503Z,5.30
2019-02-21T08:30:47.846Z,5.30
2019-02-21T08:33:23.011Z,5.30
2019-02-21T08:35:50.280Z,5.50
2019-02-21T08:38:17.512Z,5.60
2019-02-21T08:40:47.818Z,5.80
2019-02-21T08:43:15.158Z,5.80
2019-02-21T08:45:42.547Z,6.00
2019-02-21T08:48:09.911Z,5.90
2019-02-21T08:50:37.136Z,5.80
2019-02-21T08:53:04.367Z,5.80
2019-02-21T08:55:31.620Z,5.90
2019-02-21T08:57:58.855Z,5.90
2019-02-21T09:00:26.111Z,5.90
2019-02-21T09:02:53.392Z,6.00
2019-02-21T09:05:21.044Z,6.00
2019-02-21T09:07:48.320Z,6.00
2019-02-21T09:10:15.683Z,6.10
2019-02-21T09:12:47.806Z,6.20
2019-02-21T09:15:13.907Z,6.00
2019-02-21T09:17:41.273Z,6.30
2019-02-21T09:20:08.975Z,6.40
2019-02-21T09:22:36.302Z,6.60
2019-02-21T09:25:03.959Z,6.90
2019-02-21T09:27:31.180Z,7.20
2019-02-21T09:29:58.508Z,7.50
2019-02-21T09:32:25.764Z,7.60
2019-02-21T09:34:53.028Z,7.50
2019-02-21T09:37:20.355Z,7.20
2019-02-21T09:39:47.611Z,7.10
2019-02-21T09:42:14.860Z,7.00
2019-02-21T09:44:42.124Z,6.80
2019-02-21T09:47:09.371Z,6.70
2019-02-21T09:49:36.607Z,6.60
2019-02-21T09:52:03.864Z,6.50
2019-02-21T09:54:31.254Z,6.50
2019-02-21T09:56:58.512Z,6.70
2019-02-21T09:59:25.747Z,6.80
2019-02-21T10:01:52.991Z,6.80
2019-02-21T10:04:20.283Z,6.90
2019-02-21T10:06:47.532Z,7.10
2019-02-21T10:09:14.833Z,7.50
2019-02-21T10:11:42.199Z,7.70
2019-02-21T10:14:09.423Z,8.00
2019-02-21T10:16:36.668Z,7.90
2019-02-21T10:19:03.982Z,7.80
2019-02-21T10:21:31.200Z,7.80
2019-02-21T10:23:58.478Z,7.80
2019-02-21T10:26:25.748Z,7.70
2019-02-21T10:28:53.040Z,7.70
2019-02-21T10:31:20.311Z,7.60
2019-02-21T10:33:47.669Z,7.70
2019-02-21T10:36:14.939Z,8.20
2019-02-21T10:38:42.197Z,8.10
2019-02-21T10:41:09.443Z,8.20
2019-02-21T10:43:36.696Z,8.20
2019-02-21T10:46:03.945Z,8.10
2019-02-21T10:48:31.272Z,8.10
2019-02-21T10:50:58.515Z,8.20
2019-02-21T10:53:25.762Z,8.30
2019-02-21T10:55:52.994Z,8.50
2019-02-21T10:58:20.326Z,8.70
2019-02-21T11:00:47.554Z,8.80
2019-02-21T11:03:14.833Z,8.90
2019-02-21T11:05:42.074Z,8.90
2019-02-21T11:08:09.312Z,8.70
2019-02-21T11:10:36.535Z,8.80
2019-02-21T11:13:03.844Z,8.90
2019-02-21T11:15:31.082Z,8.80
2019-02-21T11:17:58.387Z,8.80
2019-02-21T11:20:25.611Z,8.80
2019-02-21T11:22:52.879Z,9.00
2019-02-21T11:25:20.263Z,9.00
2019-02-21T11:27:47.509Z,9.20
2019-02-21T11:30:15.932Z,9.20
2019-02-21T11:32:43.173Z,9.50
2019-02-21T11:35:10.459Z,9.70
2019-02-21T11:37:43.367Z,9.80
2019-02-21T11:40:08.610Z,9.60
2019-02-21T11:42:35.950Z,9.80
2019-02-21T11:45:04.238Z,9.80
2019-02-21T11:47:31.473Z,9.70
2019-02-21T11:49:58.736Z,9.30
2019-02-21T11:52:25.972Z,9.30
2019-02-21T11:54:53.244Z,9.30
2019-02-21T11:57:20.630Z,9.40
2019-02-21T11:59:47.873Z,9.20
2019-02-21T12:02:15.144Z,9.10
2019-02-21T12:04:42.384Z,8.90
2019-02-21T12:07:09.615Z,8.80
2019-02-21T12:09:36.863Z,9.00
2019-02-21T12:12:04.110Z,9.10
2019-02-21T12:14:31.354Z,9.40
2019-02-21T12:16:58.640Z,10.20
2019-02-21T12:19:25.909Z,10.90
2019-02-21T12:21:59.196Z,11.50
2019-02-21T12:24:22.310Z,11.20
2019-02-21T12:26:49.590Z,11.10
2019-02-21T12:29:16.812Z,10.90
2019-02-21T12:31:44.144Z,10.50
2019-02-21T12:34:11.500Z,10.50
2019-02-21T12:36:38.744Z,10.50
2019-02-21T12:39:06.125Z,10.40
2019-02-21T12:41:33.469Z,10.00
2019-02-21T12:44:00.808Z,9.80
2019-02-21T12:46:28.032Z,9.70
2019-02-21T12:48:55.319Z,10.00
2019-02-21T12:51:22.560Z,10.60
2019-02-21T12:53:49.803Z,11.00
2019-02-21T12:56:17.036Z,11.60
2019-02-21T12:58:45.301Z,11.70
2019-02-21T13:01:12.701Z,11.30
2019-02-21T13:03:39.952Z,11.20
2019-02-21T13:06:07.197Z,11.70
2019-02-21T13:08:34.528Z,12.20
2019-02-21T13:11:01.801Z,12.90
2019-02-21T13:13:29.073Z,14.30
2019-02-21T13:15:56.407Z,15.10
2019-02-21T13:18:23.635Z,14.40
2019-02-21T13:20:50.895Z,13.80
2019-02-21T13:23:18.156Z,13.10
2019-02-21T13:25:45.461Z,12.40
2019-02-21T13:28:12.706Z,11.90
2019-02-21T13:30:40.007Z,11.50
2019-02-21T13:33:07.343Z,11.80
2019-02-21T13:35:35.432Z,12.40
2019-02-21T13:38:02.665Z,14.30
2019-02-21T13:40:30.050Z,16.60
2019-02-21T13:42:57.387Z,18.10
2019-02-21T13:45:24.639Z,19.40
2019-02-21T13:47:51.900Z,20.50
2019-02-21T13:50:19.299Z,22.10
2019-02-21T13:52:46.531Z,22.10
2019-02-21T13:55:13.971Z,22.40
2019-02-21T13:57:41.201Z,22.00
2019-02-21T14:00:11.167Z,20.40
2019-02-21T14:02:38.416Z,18.80
2019-02-21T14:05:06.040Z,17.60
2019-02-21T14:07:33.293Z,17.10
2019-02-21T14:10:00.625Z,17.70
2019-02-21T14:12:27.860Z,18.50
2019-02-21T14:14:55.204Z,18.40
2019-02-21T14:17:22.502Z,17.50
2019-02-21T14:19:49.817Z,16.80
2019-02-21T14:22:17.083Z,15.90
2019-02-21T14:24:44.372Z,14.80
2019-02-21T14:27:11.649Z,14.40
2019-02-21T14:29:39.782Z,14.10
2019-02-21T14:32:07.121Z,13.60
2019-02-21T14:34:34.369Z,13.20
2019-02-21T14:37:01.718Z,13.00
2019-02-21T14:39:29.062Z,12.70
2019-02-21T14:41:56.323Z,12.60
2019-02-21T14:44:23.581Z,12.50
2019-02-21T14:46:50.919Z,12.40
2019-02-21T14:49:20.564Z,12.40
2019-02-21T14:51:48.018Z,12.20
2019-02-21T14:54:16.531Z,12.10
2019-02-21T14:56:44.529Z,12.10
2019-02-21T14:59:11.789Z,12.00
2019-02-21T15:01:41.180Z,12.00
2019-02-21T15:04:08.487Z,11.90
2019-02-21T15:06:35.799Z,11.90
2019-02-21T15:09:04.828Z,11.80
2019-02-21T15:11:32.148Z,11.70
2019-02-21T15:13:59.421Z,11.60
2019-02-21T15:16:27.027Z,11.50
2019-02-21T15:18:55.341Z,11.50
2019-02-21T15:21:22.926Z,11.50
2019-02-21T15:23:50.452Z,11.20
2019-02-21T15:26:17.779Z,11.30
2019-02-21T15:28:45.033Z,11.40
2019-02-21T15:31:12.259Z,11.60
2019-02-21T15:33:39.666Z,11.80
2019-02-21T15:36:07.192Z,11.80
2019-02-21T15:38:34.555Z,11.80
2019-02-21T15:41:02.158Z,11.70
2019-02-21T15:43:29.482Z,11.50
2019-02-21T15:45:56.732Z,11.30
2019-02-21T15:48:25.380Z,11.30
2019-02-21T15:50:52.713Z,11.30
2019-02-21T15:53:25.148Z,11.20
2019-02-21T15:55:52.533Z,11.10
2019-02-21T15:58:20.043Z,11.00
2019-02-21T16:00:47.302Z,10.90
2019-02-21T16:03:15.113Z,10.90
2019-02-21T16:05:42.513Z,10.80
2019-02-21T16:08:09.770Z,10.70
2019-02-21T16:10:39.777Z,10.70
2019-02-21T16:13:06.280Z,10.50
2019-02-21T16:15:33.647Z,10.60
2019-02-21T16:18:00.972Z,10.60
2019-02-21T16:20:29.999Z,10.60
2019-02-21T16:22:57.641Z,10.40
2019-02-21T16:25:26.392Z,10.40
2019-02-21T16:27:55.404Z,10.40
2019-02-21T16:30:23.359Z,10.30
2019-02-21T16:32:54.262Z,10.40
2019-02-21T16:35:22.405Z,10.30
2019-02-21T16:37:51.441Z,10.30
2019-02-21T16:40:19.500Z,10.20
2019-02-21T16:42:46.872Z,10.20
2019-02-21T16:45:14.500Z,10.20
2019-02-21T16:47:44.816Z,10.00
2019-02-21T16:50:12.447Z,10.00
2019-02-21T16:52:39.704Z,9.90
2019-02-21T16:55:09.002Z,9.90
2019-02-21T16:57:36.329Z,9.80
2019-02-21T17:00:04.199Z,9.80
2019-02-21T17:02:31.448Z,9.80
2019-02-21T17:04:58.691Z,9.80
2019-02-21T17:07:25.947Z,9.80
2019-02-21T17:09:53.207Z,9.80
2019-02-21T17:12:20.552Z,9.80
2019-02-21T17:14:47.849Z,9.80
2019-02-21T17:17:15.114Z,9.60
2019-02-21T17:19:42.379Z,9.70
2019-02-21T17:22:09.708Z,9.70
2019-02-21T17:24:36.956Z,9.70
2019-02-21T17:27:04.280Z,9.60
2019-02-21T17:29:31.520Z,9.50
2019-02-21T17:31:58.770Z,9.60
2019-02-21T17:34:26.142Z,9.50
2019-02-21T17:36:53.392Z,9.50
2019-02-21T17:39:20.731Z,9.50
2019-02-21T17:41:48.040Z,9.50
2019-02-21T17:44:15.281Z,9.40
2019-02-21T17:46:42.508Z,9.40
2019-02-21T17:49:09.812Z,9.40
2019-02-21T17:51:37.141Z,9.40
2019-02-21T17:54:04.380Z,9.40
2019-02-21T17:56:31.617Z,9.40
2019-02-21T17:58:58.848Z,9.40
2019-02-21T18:01:27.804Z,9.30
2019-02-21T18:04:17.451Z,9.30
2019-02-21T18:06:45.182Z,9.30
2019-02-21T18:09:12.484Z,9.20
2019-02-21T18:11:39.851Z,9.30
2019-02-21T18:14:07.200Z,9.10
2019-02-21T18:16:40.796Z,9.30
2019-02-21T18:19:08.157Z,9.20
2019-02-21T18:21:35.620Z,9.20
2019-02-21T18:24:03.058Z,9.10
2019-02-21T18:26:32.005Z,9.20
2019-02-21T18:29:00.537Z,9.10
2019-02-21T18:31:27.821Z,9.10
2019-02-21T18:33:56.167Z,9.10
2019-02-21T18:36:23.775Z,9.20
2019-02-21T18:38:51.039Z,9.10
2019-02-21T18:41:18.280Z,9.10
2019-02-21T18:43:45.613Z,9.10
2019-02-21T18:46:12.864Z,9.10
2019-02-21T18:48:40.097Z,9.10
2019-02-21T18:51:07.335Z,9.10
2019-02-21T18:53:34.827Z,9.20
2019-02-21T18:56:02.066Z,9.10
2019-02-21T18:58:33.584Z,9.20
2019-02-21T19:01:00.959Z,9.10
2019-02-21T19:03:28.202Z,9.00
2019-02-21T19:05:55.533Z,9.10
2019-02-21T19:08:22.847Z,9.10
2019-02-21T19:10:50.153Z,9.00
2019-02-21T19:13:17.533Z,8.90
2019-02-21T19:15:44.789Z,9.00
2019-02-21T19:18:12.154Z,9.00
2019-02-21T19:20:39.581Z,9.00
2019-02-21T19:23:06.887Z,8.90
2019-02-21T19:25:34.127Z,9.00
2019-02-21T19:28:01.411Z,8.90
2019-02-21T19:30:32.357Z,8.90
2019-02-21T19:32:59.683Z,8.90
2019-02-21T19:35:26.937Z,8.90
2019-02-21T19:37:54.342Z,8.80
2019-02-21T19:40:21.688Z,8.90
2019-02-21T19:42:48.936Z,8.80
2019-02-21T19:45:16.262Z,8.70
2019-02-21T19:47:43.566Z,8.90
2019-02-21T19:50:11.303Z,8.80
2019-02-21T19:52:38.540Z,8.80
2019-02-21T19:55:05.822Z,8.80
2019-02-21T19:57:33.165Z,8.80
2019-02-21T20:00:00.443Z,8.80
2019-02-21T20:02:27.774Z,8.80
2019-02-21T20:04:55.142Z,8.80
2019-02-21T20:07:22.500Z,8.80
2019-02-21T20:09:49.967Z,8.70
2019-02-21T20:12:17.836Z,8.70
2019-02-21T20:14:45.157Z,8.70
2019-02-21T20:17:12.544Z,8.70
2019-02-21T20:19:41.016Z,8.80
2019-02-21T20:22:08.472Z,8.70
2019-02-21T20:24:35.826Z,8.80
2019-02-21T20:27:03.222Z,8.90
2019-02-21T20:29:30.579Z,8.90
2019-02-21T20:32:17.316Z,8.90
2019-02-21T20:34:44.576Z,8.80
2019-02-21T20:37:11.963Z,8.90
2019-02-21T20:39:39.323Z,8.80
2019-02-21T20:42:06.648Z,8.80
2019-02-21T20:44:33.981Z,8.80
2019-02-21T20:47:01.281Z,8.80
2019-02-21T20:49:28.532Z,8.80
2019-02-21T20:51:55.836Z,8.70
2019-02-21T20:54:24.496Z,8.80
2019-02-21T20:56:51.779Z,8.80
2019-02-21T20:59:19.048Z,8.80
2019-02-21T21:01:46.287Z,8.80
2019-02-21T21:04:13.652Z,8.80
2019-02-21T21:06:41.027Z,8.70
2019-02-21T21:09:08.499Z,8.80
2019-02-21T21:11:35.737Z,8.80
2019-02-21T21:14:03.085Z,8.70
2019-02-21T21:16:30.373Z,8.80
2019-02-21T21:18:57.887Z,8.80
2019-02-21T21:21:25.332Z,8.80
2019-02-21T21:23:53.132Z,8.80
2019-02-21T21:26:20.461Z,8.80
2019-02-21T21:28:47.729Z,8.70
2019-02-21T21:31:15.403Z,8.70
2019-02-21T21:33:42.834Z,8.70
2019-02-21T21:36:10.092Z,8.60
2019-02-21T21:38:39.846Z,8.70
2019-02-21T21:41:07.141Z,8.60
2019-02-21T21:43:34.385Z,8.60
2019-02-21T21:46:01.618Z,8.60
2019-02-21T21:48:28.863Z,8.60
2019-02-21T21:50:56.180Z,8.60
2019-02-21T21:53:23.594Z,8.60
2019-02-21T21:55:50.827Z,8.60
2019-02-21T21:58:18.091Z,8.60
2019-02-21T22:00:45.981Z,8.50
2019-02-21T22:03:13.239Z,8.60
2019-02-21T22:05:40.554Z,8.70
2019-02-21T22:08:07.872Z,8.60
2019-02-21T22:10:35.137Z,8.60
2019-02-21T22:13:02.383Z,8.60
2019-02-21T22:15:29.681Z,8.40
2019-02-21T22:17:56.935Z,8.60
2019-02-21T22:20:24.170Z,8.60
2019-02-21T22:22:51.445Z,8.60
2019-02-21T22:25:18.683Z,8.50
2019-02-21T22:27:46.325Z,8.60
2019-02-21T22:30:14.692Z,8.50
2019-02-21T22:32:41.920Z,8.60
2019-02-21T22:35:09.183Z,8.70
2019-02-21T22:37:36.427Z,8.50
2019-02-21T22:40:04.968Z,8.60
2019-02-21T22:42:32.235Z,8.50
2019-02-21T22:44:59.500Z,8.70
2019-02-21T22:47:26.898Z,8.60
2019-02-21T22:49:54.655Z,8.60
2019-02-21T22:52:21.879Z,8.70
2019-02-21T22:54:49.163Z,8.60
2019-02-21T22:57:19.883Z,8.60
2019-02-21T22:59:47.173Z,8.70
2019-02-21T23:02:14.563Z,8.70
2019-02-21T23:05:10.012Z,8.70
2019-02-21T23:08:19.533Z,8.60
2019-02-21T23:10:46.830Z,8.70
2019-02-21T23:13:14.060Z,8.50
2019-02-21T23:15:41.432Z,8.60
2019-02-21T23:18:08.676Z,8.60
2019-02-21T23:20:35.908Z,8.60
2019-02-21T23:23:03.155Z,8.60
2019-02-21T23:25:30.454Z,8.50
2019-02-21T23:27:57.742Z,8.40
2019-02-21T23:30:24.988Z,8.40
2019-02-21T23:32:52.247Z,8.40
2019-02-21T23:35:20.378Z,8.40
2019-02-21T23:37:47.808Z,8.30
2019-02-21T23:40:15.055Z,8.20
2019-02-21T23:42:42.309Z,8.10
2019-02-21T23:45:09.571Z,8.10
2019-02-21T23:47:36.845Z,7.90
2019-02-21T23:50:04.763Z,8.00
2019-02-21T23:52:32.069Z,7.90
2019-02-21T23:54:59.291Z,7.90
2019-02-21T23:57:26.548Z,7.90
2019-02-21T23:59:53.817Z,7.90
